LOT3965 EPWA-EPLB
Flight info
| Callsign | LOT3965 |
|---|---|
| Flight time | 0h 26m |
| Altitude | 21000 |
| Route | XIMBA M860 EGLON M857 VENES |
| Aircraft | E170/M-SDE3GILORVW/S |
Departure
| Time | 2026-04-23 16:02 |
|---|---|
| Airport | Warsaw Chopin Airport (EPWA) |
Arrival
| Time | 2026-04-23 16:29 |
|---|---|
| Airport | Lublin Airport (EPLB) |
| Time | Latitude | Longitude | Altitude | Speed | Heading |
|---|---|---|---|---|---|
| 2026-04-23 15:46 | 52.16618 | 20.97453 | 333 ft | 0 kts | 24° |
| 2026-04-23 15:48 | 52.16618 | 20.97452 | 333 ft | 0 kts | 24° |
| 2026-04-23 15:55 | 52.16617 | 20.97452 | 332 ft | 0 kts | 24° |
| 2026-04-23 15:57 | 52.16614 | 20.97450 | 332 ft | 2 kts | 24° |
| 2026-04-23 15:57 | 52.16599 | 20.97438 | 334 ft | 2 kts | 25° |
| 2026-04-23 15:57 | 52.16585 | 20.97426 | 333 ft | 2 kts | 28° |
| 2026-04-23 15:57 | 52.16571 | 20.97410 | 334 ft | 2 kts | 50° |
| 2026-04-23 15:58 | 52.16570 | 20.97389 | 335 ft | 1 kts | 105° |
| 2026-04-23 15:58 | 52.16570 | 20.97386 | 334 ft | 0 kts | 108° |
| 2026-04-23 16:00 | 52.16569 | 20.97391 | 335 ft | 3 kts | 110° |
| 2026-04-23 16:00 | 52.16548 | 20.97468 | 336 ft | 12 kts | 115° |
| 2026-04-23 16:01 | 52.16499 | 20.97639 | 334 ft | 21 kts | 114° |
| 2026-04-23 16:01 | 52.16445 | 20.97800 | 336 ft | 6 kts | 148° |
| 2026-04-23 16:01 | 52.16395 | 20.97788 | 337 ft | 13 kts | 205° |
| 2026-04-23 16:01 | 52.16312 | 20.97705 | 333 ft | 14 kts | 246° |
| 2026-04-23 16:02 | 52.16365 | 20.97461 | 334 ft | 47 kts | 295° |
| 2026-04-23 16:02 | 52.16632 | 20.96509 | 350 ft | 135 kts | 292° |
| 2026-04-23 16:02 | 52.17029 | 20.94978 | 1168 ft | 157 kts | 299° |
| 2026-04-23 16:02 | 52.17506 | 20.93238 | 2031 ft | 173 kts | 300° |
| 2026-04-23 16:03 | 52.18002 | 20.91480 | 3106 ft | 172 kts | 301° |
| 2026-04-23 16:03 | 52.18392 | 20.89487 | 3749 ft | 200 kts | 283° |
| 2026-04-23 16:03 | 52.18292 | 20.87090 | 4442 ft | 225 kts | 262° |
| 2026-04-23 16:03 | 52.17572 | 20.84743 | 5172 ft | 244 kts | 237° |
| 2026-04-23 16:04 | 52.16232 | 20.82965 | 6022 ft | 255 kts | 211° |
| 2026-04-23 16:04 | 52.14483 | 20.82231 | 6868 ft | 267 kts | 182° |
| 2026-04-23 16:04 | 52.12594 | 20.82821 | 7418 ft | 291 kts | 153° |
| 2026-04-23 16:04 | 52.10844 | 20.84633 | 8131 ft | 303 kts | 139° |
| 2026-04-23 16:05 | 52.09745 | 20.86075 | 8733 ft | 307 kts | 137° |
| 2026-04-23 16:05 | 52.07447 | 20.88952 | 10053 ft | 316 kts | 141° |
| 2026-04-23 16:05 | 52.05661 | 20.91019 | 10999 ft | 321 kts | 142° |
| 2026-04-23 16:05 | 52.03802 | 20.93095 | 11959 ft | 327 kts | 142° |
| 2026-04-23 16:06 | 52.01908 | 20.95203 | 12993 ft | 333 kts | 141° |
| 2026-04-23 16:06 | 51.99999 | 20.97392 | 13710 ft | 335 kts | 141° |
| 2026-04-23 16:06 | 51.98103 | 20.99510 | 13505 ft | 325 kts | 141° |
| 2026-04-23 16:06 | 51.96260 | 21.01561 | 13203 ft | 318 kts | 141° |
| 2026-04-23 16:07 | 51.94464 | 21.03571 | 13006 ft | 308 kts | 141° |
| 2026-04-23 16:07 | 51.92722 | 21.05526 | 13380 ft | 306 kts | 141° |
| 2026-04-23 16:07 | 51.90945 | 21.07533 | 14242 ft | 318 kts | 141° |
| 2026-04-23 16:07 | 51.89121 | 21.09593 | 15028 ft | 330 kts | 140° |
| 2026-04-23 16:08 | 51.87191 | 21.11767 | 15853 ft | 343 kts | 141° |
| 2026-04-23 16:08 | 51.85208 | 21.13995 | 16757 ft | 351 kts | 141° |
| 2026-04-23 16:08 | 51.83177 | 21.16275 | 17713 ft | 358 kts | 140° |
| 2026-04-23 16:08 | 51.81113 | 21.18592 | 18632 ft | 364 kts | 140° |
| 2026-04-23 16:09 | 51.79016 | 21.20944 | 19533 ft | 369 kts | 140° |
| 2026-04-23 16:09 | 51.76914 | 21.23298 | 20411 ft | 374 kts | 140° |
| 2026-04-23 16:09 | 51.74773 | 21.25693 | 20874 ft | 377 kts | 140° |
| 2026-04-23 16:09 | 51.72558 | 21.28173 | 20931 ft | 392 kts | 140° |
| 2026-04-23 16:10 | 51.70300 | 21.30690 | 20955 ft | 397 kts | 140° |
| 2026-04-23 16:10 | 51.68014 | 21.33233 | 20958 ft | 401 kts | 140° |
| 2026-04-23 16:10 | 51.65711 | 21.35793 | 20974 ft | 402 kts | 140° |
| 2026-04-23 16:10 | 51.63402 | 21.38356 | 20980 ft | 403 kts | 140° |
| 2026-04-23 16:11 | 51.61094 | 21.40914 | 20972 ft | 403 kts | 140° |
| 2026-04-23 16:11 | 51.58773 | 21.43485 | 20953 ft | 404 kts | 140° |
| 2026-04-23 16:11 | 51.56458 | 21.46046 | 20953 ft | 404 kts | 140° |
| 2026-04-23 16:11 | 51.54144 | 21.48603 | 20953 ft | 403 kts | 140° |
| 2026-04-23 16:12 | 51.51837 | 21.51150 | 20948 ft | 403 kts | 140° |
| 2026-04-23 16:12 | 51.49553 | 21.53669 | 20945 ft | 403 kts | 140° |
| 2026-04-23 16:12 | 51.47237 | 21.56217 | 20948 ft | 403 kts | 140° |
| 2026-04-23 16:12 | 51.44919 | 21.58765 | 20952 ft | 402 kts | 140° |
| 2026-04-23 16:13 | 51.42600 | 21.61313 | 20949 ft | 402 kts | 140° |
| 2026-04-23 16:13 | 51.38002 | 21.66355 | 20944 ft | 403 kts | 140° |
| 2026-04-23 16:13 | 51.35685 | 21.68891 | 20938 ft | 402 kts | 140° |
| 2026-04-23 16:14 | 51.33378 | 21.71412 | 20933 ft | 402 kts | 140° |
| 2026-04-23 16:14 | 51.31069 | 21.73933 | 20921 ft | 402 kts | 140° |
| 2026-04-23 16:14 | 51.28739 | 21.76474 | 20403 ft | 405 kts | 141° |
| 2026-04-23 16:14 | 51.26425 | 21.78984 | 19917 ft | 400 kts | 141° |
| 2026-04-23 16:15 | 51.24137 | 21.81464 | 19447 ft | 395 kts | 141° |
| 2026-04-23 16:15 | 51.21872 | 21.83915 | 18996 ft | 391 kts | 141° |
| 2026-04-23 16:15 | 51.19630 | 21.86342 | 18563 ft | 388 kts | 142° |
| 2026-04-23 16:15 | 51.17403 | 21.88758 | 18128 ft | 384 kts | 140° |
| 2026-04-23 16:16 | 51.15576 | 21.91733 | 17580 ft | 370 kts | 116° |
| 2026-04-23 16:16 | 51.14705 | 21.95440 | 17098 ft | 350 kts | 91° |
| 2026-04-23 16:16 | 51.14903 | 21.99159 | 16633 ft | 329 kts | 66° |
| 2026-04-23 16:16 | 51.15666 | 22.02509 | 16201 ft | 317 kts | 64° |
| 2026-04-23 16:17 | 51.16312 | 22.05790 | 15765 ft | 311 kts | 67° |
| 2026-04-23 16:17 | 51.16907 | 22.09060 | 15328 ft | 305 kts | 68° |
| 2026-04-23 16:17 | 51.17420 | 22.12327 | 14906 ft | 302 kts | 70° |
| 2026-04-23 16:17 | 51.17877 | 22.15577 | 14487 ft | 299 kts | 70° |
| 2026-04-23 16:18 | 51.18315 | 22.18792 | 14078 ft | 296 kts | 71° |
| 2026-04-23 16:18 | 51.18742 | 22.22001 | 13683 ft | 295 kts | 71° |
| 2026-04-23 16:18 | 51.19160 | 22.25198 | 13244 ft | 294 kts | 71° |
| 2026-04-23 16:18 | 51.19569 | 22.28382 | 12805 ft | 292 kts | 72° |
| 2026-04-23 16:19 | 51.19967 | 22.31518 | 12398 ft | 291 kts | 72° |
| 2026-04-23 16:19 | 51.20367 | 22.34685 | 11963 ft | 290 kts | 72° |
| 2026-04-23 16:19 | 51.20761 | 22.37831 | 11548 ft | 289 kts | 72° |
| 2026-04-23 16:19 | 51.21229 | 22.40911 | 11120 ft | 281 kts | 62° |
| 2026-04-23 16:20 | 51.22297 | 22.43410 | 10730 ft | 269 kts | 41° |
| 2026-04-23 16:20 | 51.23633 | 22.45488 | 10376 ft | 266 kts | 39° |
| 2026-04-23 16:20 | 51.24970 | 22.47542 | 10020 ft | 267 kts | 39° |
| 2026-04-23 16:20 | 51.26304 | 22.49607 | 9644 ft | 267 kts | 39° |
| 2026-04-23 16:21 | 51.27615 | 22.51648 | 9248 ft | 266 kts | 39° |
| 2026-04-23 16:21 | 51.28938 | 22.53719 | 8856 ft | 266 kts | 40° |
| 2026-04-23 16:21 | 51.30232 | 22.55844 | 8317 ft | 272 kts | 47° |
| 2026-04-23 16:21 | 51.30961 | 22.58684 | 7905 ft | 280 kts | 73° |
| 2026-04-23 16:22 | 51.31213 | 22.61732 | 7552 ft | 280 kts | 78° |
| 2026-04-23 16:22 | 51.31468 | 22.64849 | 7129 ft | 280 kts | 77° |
| 2026-04-23 16:22 | 51.31740 | 22.67933 | 6741 ft | 280 kts | 77° |
| 2026-04-23 16:22 | 51.32009 | 22.71006 | 6448 ft | 277 kts | 77° |
| 2026-04-23 16:23 | 51.32279 | 22.74057 | 6126 ft | 278 kts | 77° |
| 2026-04-23 16:23 | 51.32550 | 22.77070 | 5739 ft | 275 kts | 77° |
| 2026-04-23 16:23 | 51.32826 | 22.80087 | 5398 ft | 271 kts | 77° |
| 2026-04-23 16:23 | 51.33098 | 22.83064 | 5038 ft | 270 kts | 77° |
| 2026-04-23 16:24 | 51.33361 | 22.85953 | 4635 ft | 254 kts | 76° |
| 2026-04-23 16:24 | 51.33611 | 22.88680 | 4261 ft | 241 kts | 75° |
| 2026-04-23 16:24 | 51.33675 | 22.90424 | 4046 ft | 237 kts | 91° |
| 2026-04-23 16:24 | 51.33022 | 22.92840 | 3752 ft | 244 kts | 132° |
| 2026-04-23 16:25 | 51.31570 | 22.94153 | 3479 ft | 242 kts | 172° |
| 2026-04-23 16:25 | 51.29905 | 22.94436 | 3298 ft | 242 kts | 175° |
| 2026-04-23 16:25 | 51.27791 | 22.93986 | 3030 ft | 225 kts | 218° |
| 2026-04-23 16:25 | 51.27098 | 22.92801 | 3007 ft | 212 kts | 248° |
| 2026-04-23 16:26 | 51.26669 | 22.90557 | 2683 ft | 217 kts | 270° |
| 2026-04-23 16:26 | 51.26449 | 22.88148 | 2328 ft | 218 kts | 261° |
| 2026-04-23 16:26 | 51.26062 | 22.85923 | 2207 ft | 198 kts | 261° |
| 2026-04-23 16:26 | 51.25782 | 22.83863 | 1989 ft | 183 kts | 265° |
| 2026-04-23 16:27 | 51.25537 | 22.81947 | 1764 ft | 171 kts | 262° |
| 2026-04-23 16:27 | 51.25257 | 22.80145 | 1519 ft | 159 kts | 263° |
| 2026-04-23 16:27 | 51.25034 | 22.78521 | 1328 ft | 141 kts | 263° |
| 2026-04-23 16:27 | 51.24805 | 22.77021 | 1127 ft | 135 kts | 263° |
| 2026-04-23 16:28 | 51.24612 | 22.75600 | 956 ft | 130 kts | 263° |
| 2026-04-23 16:28 | 51.24421 | 22.74204 | 803 ft | 127 kts | 263° |
| 2026-04-23 16:28 | 51.24226 | 22.72837 | 650 ft | 123 kts | 266° |
| 2026-04-23 16:28 | 51.24070 | 22.71713 | 640 ft | 67 kts | 255° |
| 2026-04-23 16:29 | 51.24015 | 22.71389 | 644 ft | 12 kts | 225° |
| 2026-04-23 16:29 | 51.23985 | 22.71362 | 646 ft | 3 kts | 171° |
| 2026-04-23 16:29 | 51.23927 | 22.71383 | 648 ft | 14 kts | 166° |
| 2026-04-23 16:29 | 51.23810 | 22.71427 | 651 ft | 21 kts | 167° |
| 2026-04-23 16:30 | 51.23679 | 22.71474 | 651 ft | 14 kts | 166° |
| 2026-04-23 16:30 | 51.23644 | 22.71488 | 651 ft | 0 kts | 168° |
| 2026-04-23 16:33 | 51.23644 | 22.71487 | 651 ft | 0 kts | 168° |